sensor_id;sensor_type;location;lat;lon;timestamp;pressure;altitude;pressure_sealevel;temperature;humidity
25722;BME280;13578;53.450;15.496;2023-02-19T00:02:15;99320.22;;;1.78;100.00
25722;BME280;13578;53.450;15.496;2023-02-19T00:05:15;99321.97;;;1.79;100.00
25722;BME280;13578;53.450;15.496;2023-02-19T00:08:16;99320.72;;;1.84;100.00
25722;BME280;13578;53.450;15.496;2023-02-19T00:11:18;99326.13;;;1.84;100.00
25722;BME280;13578;53.450;15.496;2023-02-19T00:14:20;99313.66;;;1.82;100.00
25722;BME280;13578;53.450;15.496;2023-02-19T00:17:21;99316.94;;;1.87;100.00
25722;BME280;13578;53.450;15.496;2023-02-19T00:20:21;99316.28;;;1.83;100.00
25722;BME280;13578;53.450;15.496;2023-02-19T00:23:22;99313.06;;;1.77;100.00
25722;BME280;13578;53.450;15.496;2023-02-19T00:26:23;99317.75;;;1.89;100.00
25722;BME280;13578;53.450;15.496;2023-02-19T00:29:24;99308.06;;;1.85;100.00
25722;BME280;13578;53.450;15.496;2023-02-19T00:32:25;99308.84;;;1.87;100.00
25722;BME280;13578;53.450;15.496;2023-02-19T00:35:27;99307.78;;;1.89;100.00
25722;BME280;13578;53.450;15.496;2023-02-19T00:38:27;99312.50;;;1.86;100.00
25722;BME280;13578;53.450;15.496;2023-02-19T00:41:28;99309.63;;;1.89;100.00
25722;BME280;13578;53.450;15.496;2023-02-19T00:44:29;99307.84;;;1.73;100.00
25722;BME280;13578;53.450;15.496;2023-02-19T00:47:30;99310.97;;;1.82;100.00
25722;BME280;13578;53.450;15.496;2023-02-19T00:50:30;99320.22;;;1.78;100.00
25722;BME280;13578;53.450;15.496;2023-02-19T00:53:31;99327.59;;;1.76;100.00
25722;BME280;13578;53.450;15.496;2023-02-19T00:56:32;99321.00;;;1.80;100.00
25722;BME280;13578;53.450;15.496;2023-02-19T00:59:33;99335.31;;;1.82;100.00
25722;BME280;13578;53.450;15.496;2023-02-19T01:02:36;99334.16;;;1.86;100.00
25722;BME280;13578;53.450;15.496;2023-02-19T01:05:36;99324.97;;;1.88;100.00
25722;BME280;13578;53.450;15.496;2023-02-19T01:08:37;99319.16;;;1.80;100.00
25722;BME280;13578;53.450;15.496;2023-02-19T01:11:37;99313.66;;;1.82;100.00
25722;BME280;13578;53.450;15.496;2023-02-19T01:14:38;99319.09;;;1.82;100.00
25722;BME280;13578;53.450;15.496;2023-02-19T01:17:38;99316.75;;;1.76;100.00
25722;BME280;13578;53.450;15.496;2023-02-19T01:20:41;99307.66;;;1.77;100.00
25722;BME280;13578;53.450;15.496;2023-02-19T01:23:42;99306.91;;;1.74;100.00
25722;BME280;13578;53.450;15.496;2023-02-19T01:26:43;99310.06;;;1.81;100.00
25722;BME280;13578;53.450;15.496;2023-02-19T01:29:44;99294.91;;;1.79;100.00
25722;BME280;13578;53.450;15.496;2023-02-19T01:32:44;99294.31;;;1.73;100.00
25722;BME280;13578;53.450;15.496;2023-02-19T01:35:45;99296.06;;;1.74;100.00
25722;BME280;13578;53.450;15.496;2023-02-19T01:38:46;99298.13;;;1.85;100.00
25722;BME280;13578;53.450;15.496;2023-02-19T01:41:47;99294.22;;;1.75;100.00
25722;BME280;13578;53.450;15.496;2023-02-19T01:48:12;99281.94;;;1.84;100.00
25722;BME280;13578;53.450;15.496;2023-02-19T01:51:17;99269.97;;;1.73;100.00
25722;BME280;13578;53.450;15.496;2023-02-19T01:54:21;99266.09;;;1.78;100.00
25722;BME280;13578;53.450;15.496;2023-02-19T01:57:28;99257.25;;;1.76;100.00
25722;BME280;13578;53.450;15.496;2023-02-19T02:00:31;99253.06;;;1.84;100.00
25722;BME280;13578;53.450;15.496;2023-02-19T02:03:34;99243.78;;;1.74;100.00
25722;BME280;13578;53.450;15.496;2023-02-19T02:07:01;99250.16;;;1.87;100.00
25722;BME280;13578;53.450;15.496;2023-02-19T02:10:01;99239.72;;;1.81;100.00
25722;BME280;13578;53.450;15.496;2023-02-19T02:13:20;99249.47;;;1.84;100.00
25722;BME280;13578;53.450;15.496;2023-02-19T02:30:04;99244.47;;;1.78;100.00
25722;BME280;13578;53.450;15.496;2023-02-19T02:36:38;99221.97;;;1.77;100.00
25722;BME280;13578;53.450;15.496;2023-02-19T02:39:40;99214.97;;;1.73;100.00
25722;BME280;13578;53.450;15.496;2023-02-19T02:42:42;99215.66;;;1.77;100.00
25722;BME280;13578;53.450;15.496;2023-02-19T02:45:42;99208.31;;;1.79;100.00
25722;BME280;13578;53.450;15.496;2023-02-19T02:48:50;99219.44;;;1.88;100.00
25722;BME280;13578;53.450;15.496;2023-02-19T02:51:54;99208.03;;;1.83;100.00
25722;BME280;13578;53.450;15.496;2023-02-19T02:54:56;99217.00;;;1.84;100.00
25722;BME280;13578;53.450;15.496;2023-02-19T02:58:03;99207.19;;;1.83;100.00
25722;BME280;13578;53.450;15.496;2023-02-19T03:01:16;99203.31;;;1.72;100.00
25722;BME280;13578;53.450;15.496;2023-02-19T03:04:48;99220.78;;;1.81;100.00
25722;BME280;13578;53.450;15.496;2023-02-19T03:08:13;99222.41;;;1.84;100.00
25722;BME280;13578;53.450;15.496;2023-02-19T03:11:15;99224.28;;;1.83;100.00
25722;BME280;13578;53.450;15.496;2023-02-19T03:14:43;99221.84;;;1.79;100.00
25722;BME280;13578;53.450;15.496;2023-02-19T03:18:06;99231.91;;;1.77;100.00
25722;BME280;13578;53.450;15.496;2023-02-19T03:21:27;99229.97;;;1.79;100.00
25722;BME280;13578;53.450;15.496;2023-02-19T03:24:30;99231.53;;;1.83;100.00
25722;BME280;13578;53.450;15.496;2023-02-19T03:27:51;99231.31;;;1.71;100.00
25722;BME280;13578;53.450;15.496;2023-02-19T03:30:54;99237.50;;;1.73;100.00
25722;BME280;13578;53.450;15.496;2023-02-19T03:33:58;99221.06;;;1.77;100.00
25722;BME280;13578;53.450;15.496;2023-02-19T03:37:05;99230.19;;;1.76;100.00
25722;BME280;13578;53.450;15.496;2023-02-19T03:40:08;99223.31;;;1.70;100.00
25722;BME280;13578;53.450;15.496;2023-02-19T03:43:17;99229.13;;;1.78;100.00
25722;BME280;13578;53.450;15.496;2023-02-19T03:46:40;99238.97;;;1.79;100.00
25722;BME280;13578;53.450;15.496;2023-02-19T03:49:58;99238.19;;;1.77;100.00
25722;BME280;13578;53.450;15.496;2023-02-19T03:53:03;99238.88;;;1.81;100.00
25722;BME280;13578;53.450;15.496;2023-02-19T03:56:15;99234.53;;;1.78;100.00
25722;BME280;13578;53.450;15.496;2023-02-19T03:59:26;99238.88;;;1.81;100.00
25722;BME280;13578;53.450;15.496;2023-02-19T04:05:37;99242.44;;;1.81;100.00
25722;BME280;13578;53.450;15.496;2023-02-19T04:08:42;99234.03;;;1.71;100.00
25722;BME280;13578;53.450;15.496;2023-02-19T04:11:43;99240.00;;;1.77;100.00
25722;BME280;13578;53.450;15.496;2023-02-19T04:18:03;99243.72;;;1.76;100.00
25722;BME280;13578;53.450;15.496;2023-02-19T04:21:05;99241.97;;;1.74;100.00
25722;BME280;13578;53.450;15.496;2023-02-19T04:24:13;99234.13;;;1.70;100.00
25722;BME280;13578;53.450;15.496;2023-02-19T04:27:17;99236.44;;;1.76;100.00
25722;BME280;13578;53.450;15.496;2023-02-19T04:30:18;99237.41;;;1.75;100.00
25722;BME280;13578;53.450;15.496;2023-02-19T04:33:18;99239.66;;;1.83;100.00
25722;BME280;13578;53.450;15.496;2023-02-19T04:36:19;99239.06;;;1.78;100.00
25722;BME280;13578;53.450;15.496;2023-02-19T04:39:19;99237.31;;;1.77;100.00
25722;BME280;13578;53.450;15.496;2023-02-19T04:42:20;99245.41;;;1.77;100.00
25722;BME280;13578;53.450;15.496;2023-02-19T04:45:21;99242.53;;;1.80;100.00
25722;BME280;13578;53.450;15.496;2023-02-19T04:48:21;99246.31;;;1.77;100.00
25722;BME280;13578;53.450;15.496;2023-02-19T04:51:22;99248.81;;;1.80;100.00
25722;BME280;13578;53.450;15.496;2023-02-19T04:54:23;99239.84;;;1.80;100.00
25722;BME280;13578;53.450;15.496;2023-02-19T04:57:23;99241.75;;;1.78;100.00
25722;BME280;13578;53.450;15.496;2023-02-19T05:00:24;99246.22;;;1.79;100.00
25722;BME280;13578;53.450;15.496;2023-02-19T05:03:24;99249.69;;;1.81;100.00
25722;BME280;13578;53.450;15.496;2023-02-19T05:06:25;99234.59;;;1.77;100.00
25722;BME280;13578;53.450;15.496;2023-02-19T05:09:26;99235.19;;;1.82;100.00
25722;BME280;13578;53.450;15.496;2023-02-19T05:12:29;99233.63;;;1.78;100.00
25722;BME280;13578;53.450;15.496;2023-02-19T05:15:29;99237.13;;;1.80;100.00
25722;BME280;13578;53.450;15.496;2023-02-19T05:18:31;99246.03;;;1.82;100.00
25722;BME280;13578;53.450;15.496;2023-02-19T05:21:31;99250.47;;;1.83;100.00
25722;BME280;13578;53.450;15.496;2023-02-19T05:24:32;99245.25;;;1.80;100.00
25722;BME280;13578;53.450;15.496;2023-02-19T05:27:32;99249.59;;;1.82;100.00
25722;BME280;13578;53.450;15.496;2023-02-19T05:30:34;99250.75;;;1.78;100.00
25722;BME280;13578;53.450;15.496;2023-02-19T05:33:34;99254.16;;;1.82;100.00
25722;BME280;13578;53.450;15.496;2023-02-19T05:36:36;99253.47;;;1.78;100.00
25722;BME280;13578;53.450;15.496;2023-02-19T05:39:38;99257.53;;;1.71;100.00
25722;BME280;13578;53.450;15.496;2023-02-19T05:42:38;99261.66;;;1.77;100.00
25722;BME280;13578;53.450;15.496;2023-02-19T05:45:39;99264.19;;;1.80;100.00
25722;BME280;13578;53.450;15.496;2023-02-19T05:48:41;99258.19;;;1.74;100.00
25722;BME280;13578;53.450;15.496;2023-02-19T05:51:41;99269.97;;;1.73;100.00
25722;BME280;13578;53.450;15.496;2023-02-19T05:54:42;99264.34;;;1.77;100.00
25722;BME280;13578;53.450;15.496;2023-02-19T05:57:45;99275.19;;;1.77;100.00
25722;BME280;13578;53.450;15.496;2023-02-19T06:00:46;99289.38;;;1.80;100.00
25722;BME280;13578;53.450;15.496;2023-02-19T06:03:46;99291.06;;;1.83;100.00
25722;BME280;13578;53.450;15.496;2023-02-19T06:06:47;99288.53;;;1.80;100.00
25722;BME280;13578;53.450;15.496;2023-02-19T06:09:51;99303.97;;;1.78;100.00
25722;BME280;13578;53.450;15.496;2023-02-19T06:12:52;99295.69;;;1.81;100.00
25722;BME280;13578;53.450;15.496;2023-02-19T06:15:53;99306.31;;;1.84;100.00
25722;BME280;13578;53.450;15.496;2023-02-19T06:18:54;99303.59;;;1.84;100.00
25722;BME280;13578;53.450;15.496;2023-02-19T06:21:54;99304.66;;;1.81;100.00
25722;BME280;13578;53.450;15.496;2023-02-19T06:24:55;99307.00;;;1.87;100.00
25722;BME280;13578;53.450;15.496;2023-02-19T06:27:55;99311.72;;;1.84;100.00
25722;BME280;13578;53.450;15.496;2023-02-19T06:30:57;99310.06;;;1.81;100.00
25722;BME280;13578;53.450;15.496;2023-02-19T06:33:58;99308.16;;;1.83;100.00
25722;BME280;13578;53.450;15.496;2023-02-19T06:36:59;99320.53;;;1.87;100.00
25722;BME280;13578;53.450;15.496;2023-02-19T06:40:00;99330.88;;;1.81;100.00
25722;BME280;13578;53.450;15.496;2023-02-19T06:43:00;99326.41;;;1.80;100.00
25722;BME280;13578;53.450;15.496;2023-02-19T06:46:03;99322.75;;;1.81;100.00
25722;BME280;13578;53.450;15.496;2023-02-19T06:49:04;99339.28;;;1.90;100.00
25722;BME280;13578;53.450;15.496;2023-02-19T06:52:05;99334.16;;;1.86;100.00
25722;BME280;13578;53.450;15.496;2023-02-19T06:55:06;99337.66;;;1.88;100.00
25722;BME280;13578;53.450;15.496;2023-02-19T06:58:06;99341.31;;;1.87;100.00
25722;BME280;13578;53.450;15.496;2023-02-19T07:01:10;99324.41;;;1.83;100.00
25722;BME280;13578;53.450;15.496;2023-02-19T07:04:11;99338.44;;;1.90;100.00
25722;BME280;13578;53.450;15.496;2023-02-19T07:07:11;99350.91;;;1.93;100.00
25722;BME280;13578;53.450;15.496;2023-02-19T07:10:12;99356.03;;;1.97;100.00
25722;BME280;13578;53.450;15.496;2023-02-19T07:13:12;99369.56;;;1.97;100.00
25722;BME280;13578;53.450;15.496;2023-02-19T07:16:13;99364.22;;;1.96;100.00
25722;BME280;13578;53.450;15.496;2023-02-19T07:19:14;99372.53;;;1.93;100.00
25722;BME280;13578;53.450;15.496;2023-02-19T07:22:15;99380.56;;;1.94;100.00
25722;BME280;13578;53.450;15.496;2023-02-19T07:25:16;99375.16;;;1.94;100.00
25722;BME280;13578;53.450;15.496;2023-02-19T07:28:17;99392.75;;;2.01;100.00
25722;BME280;13578;53.450;15.496;2023-02-19T07:31:19;99389.19;;;2.01;100.00
25722;BME280;13578;53.450;15.496;2023-02-19T07:34:20;99402.63;;;2.02;100.00
25722;BME280;13578;53.450;15.496;2023-02-19T07:37:21;99404.28;;;2.05;100.00
25722;BME280;13578;53.450;15.496;2023-02-19T07:40:21;99414.81;;;2.10;100.00
25722;BME280;13578;53.450;15.496;2023-02-19T07:43:27;99422.28;;;2.20;100.00
25722;BME280;13578;53.450;15.496;2023-02-19T07:46:28;99425.78;;;2.22;100.00
25722;BME280;13578;53.450;15.496;2023-02-19T07:49:29;99425.47;;;2.13;100.00
25722;BME280;13578;53.450;15.496;2023-02-19T07:52:29;99433.00;;;2.22;100.00
25722;BME280;13578;53.450;15.496;2023-02-19T07:55:31;99431.09;;;2.24;100.00
25722;BME280;13578;53.450;15.496;2023-02-19T07:58:32;99430.91;;;2.27;100.00
25722;BME280;13578;53.450;15.496;2023-02-19T08:01:34;99432.63;;;2.28;100.00
25722;BME280;13578;53.450;15.496;2023-02-19T08:04:53;99441.44;;;2.32;100.00
25722;BME280;13578;53.450;15.496;2023-02-19T08:07:53;99441.16;;;2.36;100.00
25722;BME280;13578;53.450;15.496;2023-02-19T08:10:54;99448.53;;;2.49;100.00
25722;BME280;13578;53.450;15.496;2023-02-19T08:14:13;99453.56;;;2.55;100.00
25722;BME280;13578;53.450;15.496;2023-02-19T08:17:14;99460.22;;;2.49;100.00
25722;BME280;13578;53.450;15.496;2023-02-19T08:20:14;99472.03;;;2.48;100.00
25722;BME280;13578;53.450;15.496;2023-02-19T08:23:15;99472.72;;;2.52;100.00
25722;BME280;13578;53.450;15.496;2023-02-19T08:26:16;99473.50;;;2.54;100.00
25722;BME280;13578;53.450;15.496;2023-02-19T08:29:17;99481.41;;;2.57;100.00
25722;BME280;13578;53.450;15.496;2023-02-19T08:32:17;99483.38;;;2.55;100.00
25722;BME280;13578;53.450;15.496;2023-02-19T08:35:18;99482.69;;;2.51;100.00
25722;BME280;13578;53.450;15.496;2023-02-19T08:38:19;99495.56;;;2.62;100.00
25722;BME280;13578;53.450;15.496;2023-02-19T08:41:20;99502.91;;;2.60;100.00
25722;BME280;13578;53.450;15.496;2023-02-19T08:44:21;99502.91;;;2.60;100.00
25722;BME280;13578;53.450;15.496;2023-02-19T08:47:21;99510.94;;;2.62;100.00
25722;BME280;13578;53.450;15.496;2023-02-19T08:50:22;99503.09;;;2.57;100.00
25722;BME280;13578;53.450;15.496;2023-02-19T08:53:23;99525.38;;;2.62;100.00
25722;BME280;13578;53.450;15.496;2023-02-19T08:56:24;99534.88;;;2.69;100.00
25722;BME280;13578;53.450;15.496;2023-02-19T08:59:27;99535.06;;;2.81;100.00
25722;BME280;13578;53.450;15.496;2023-02-19T09:02:28;99541.56;;;2.93;100.00
25722;BME280;13578;53.450;15.496;2023-02-19T09:05:29;99541.94;;;2.86;100.00
25722;BME280;13578;53.450;15.496;2023-02-19T09:08:30;99546.88;;;2.80;100.00
25722;BME280;13578;53.450;15.496;2023-02-19T09:11:30;99541.84;;;2.74;100.00
25722;BME280;13578;53.450;15.496;2023-02-19T09:14:31;99558.91;;;2.90;100.00
25722;BME280;13578;53.450;15.496;2023-02-19T09:17:33;99554.53;;;2.88;100.00
25722;BME280;13578;53.450;15.496;2023-02-19T09:20:34;99566.25;;;2.88;100.00
25722;BME280;13578;53.450;15.496;2023-02-19T09:23:35;99568.19;;;2.86;100.00
25722;BME280;13578;53.450;15.496;2023-02-19T09:26:36;99571.88;;;2.99;100.00
25722;BME280;13578;53.450;15.496;2023-02-19T09:29:37;99578.28;;;2.98;100.00
25722;BME280;13578;53.450;15.496;2023-02-19T09:32:37;99597.53;;;2.94;100.00
25722;BME280;13578;53.450;15.496;2023-02-19T09:35:39;99595.63;;;3.10;100.00
25722;BME280;13578;53.450;15.496;2023-02-19T09:38:40;99592.41;;;3.32;100.00
25722;BME280;13578;53.450;15.496;2023-02-19T09:41:56;99599.47;;;3.35;100.00
25722;BME280;13578;53.450;15.496;2023-02-19T09:44:59;99610.53;;;3.17;100.00
25722;BME280;13578;53.450;15.496;2023-02-19T09:48:01;99608.41;;;3.23;100.00
25722;BME280;13578;53.450;15.496;2023-02-19T09:51:02;99618.28;;;3.38;100.00
25722;BME280;13578;53.450;15.496;2023-02-19T09:54:05;99609.47;;;3.49;100.00
25722;BME280;13578;53.450;15.496;2023-02-19T09:57:17;99619.34;;;3.50;100.00
25722;BME280;13578;53.450;15.496;2023-02-19T10:00:26;99620.88;;;3.40;100.00
25722;BME280;13578;53.450;15.496;2023-02-19T10:03:30;99625.47;;;3.39;100.00
25722;BME280;13578;53.450;15.496;2023-02-19T10:06:33;99620.59;;;3.30;100.00
25722;BME280;13578;53.450;15.496;2023-02-19T10:09:36;99628.84;;;3.43;100.00
25722;BME280;13578;53.450;15.496;2023-02-19T10:12:40;99623.81;;;3.65;100.00
25722;BME280;13578;53.450;15.496;2023-02-19T10:16:00;99649.19;;;3.79;100.00
25722;BME280;13578;53.450;15.496;2023-02-19T10:19:01;99645.31;;;3.54;100.00
25722;BME280;13578;53.450;15.496;2023-02-19T10:22:02;99643.47;;;3.69;100.00
25722;BME280;13578;53.450;15.496;2023-02-19T10:25:03;99635.63;;;3.64;100.00
25722;BME280;13578;53.450;15.496;2023-02-19T10:28:08;99648.22;;;3.80;100.00
25722;BME280;13578;53.450;15.496;2023-02-19T10:31:22;99647.69;;;3.88;100.00
25722;BME280;13578;53.450;15.496;2023-02-19T10:34:23;99657.50;;;3.90;100.00
25722;BME280;13578;53.450;15.496;2023-02-19T10:37:23;99656.84;;;3.72;100.00
25722;BME280;13578;53.450;15.496;2023-02-19T10:40:26;99666.84;;;3.72;100.00
25722;BME280;13578;53.450;15.496;2023-02-19T10:43:30;99678.13;;;3.93;100.00
25722;BME280;13578;53.450;15.496;2023-02-19T10:46:41;99688.41;;;4.02;100.00
25722;BME280;13578;53.450;15.496;2023-02-19T10:49:43;99665.25;;;3.68;100.00
25722;BME280;13578;53.450;15.496;2023-02-19T10:52:51;99672.28;;;3.57;100.00
25722;BME280;13578;53.450;15.496;2023-02-19T10:56:28;99688.53;;;3.57;100.00
25722;BME280;13578;53.450;15.496;2023-02-19T10:59:32;99706.75;;;3.55;100.00
25722;BME280;13578;53.450;15.496;2023-02-19T11:02:33;99705.78;;;3.56;100.00
25722;BME280;13578;53.450;15.496;2023-02-19T11:05:35;99714.13;;;3.68;100.00
25722;BME280;13578;53.450;15.496;2023-02-19T11:08:57;99710.53;;;3.81;100.00
25722;BME280;13578;53.450;15.496;2023-02-19T11:11:58;99712.66;;;4.20;100.00
25722;BME280;13578;53.450;15.496;2023-02-19T11:15:28;99701.38;;;4.26;100.00
25722;BME280;13578;53.450;15.496;2023-02-19T11:18:31;99718.91;;;4.35;100.00
25722;BME280;13578;53.450;15.496;2023-02-19T11:21:37;99708.88;;;4.50;100.00
25722;BME280;13578;53.450;15.496;2023-02-19T11:24:38;99707.44;;;4.44;100.00
25722;BME280;13578;53.450;15.496;2023-02-19T11:34:28;99690.81;;;4.21;100.00
25722;BME280;13578;53.450;15.496;2023-02-19T11:37:29;99703.03;;;4.14;100.00
25722;BME280;13578;53.450;15.496;2023-02-19T11:40:40;99689.50;;;4.00;100.00
25722;BME280;13578;53.450;15.496;2023-02-19T12:00:30;99731.03;;;4.43;100.00
25722;BME280;13578;53.450;15.496;2023-02-19T12:11:08;99736.69;;;4.26;100.00
25722;BME280;13578;53.450;15.496;2023-02-19T12:18:08;99773.28;;;3.91;100.00
25722;BME280;13578;53.450;15.496;2023-02-19T12:21:33;99764.28;;;4.05;100.00
25722;BME280;13578;53.450;15.496;2023-02-19T12:38:29;99767.22;;;4.44;100.00
25722;BME280;13578;53.450;15.496;2023-02-19T12:41:48;99792.44;;;4.60;100.00
25722;BME280;13578;53.450;15.496;2023-02-19T12:44:57;99754.44;;;4.32;100.00
25722;BME280;13578;53.450;15.496;2023-02-19T12:54:40;99775.72;;;4.10;100.00
25722;BME280;13578;53.450;15.496;2023-02-19T12:57:42;99802.00;;;4.24;100.00
25722;BME280;13578;53.450;15.496;2023-02-19T13:00:48;99810.16;;;4.39;100.00
25722;BME280;13578;53.450;15.496;2023-02-19T13:07:35;99799.81;;;4.58;100.00
25722;BME280;13578;53.450;15.496;2023-02-19T13:10:46;99803.38;;;4.59;100.00
25722;BME280;13578;53.450;15.496;2023-02-19T13:14:10;99807.56;;;4.65;100.00
25722;BME280;13578;53.450;15.496;2023-02-19T13:20:40;99810.84;;;4.84;100.00
25722;BME280;13578;53.450;15.496;2023-02-19T13:23:42;99814.47;;;4.70;100.00
25722;BME280;13578;53.450;15.496;2023-02-19T13:37:33;99833.44;;;4.14;100.00
25722;BME280;13578;53.450;15.496;2023-02-19T13:40:36;99840.03;;;4.24;100.00
25722;BME280;13578;53.450;15.496;2023-02-19T13:43:39;99842.84;;;4.23;100.00
25722;BME280;13578;53.450;15.496;2023-02-19T13:46:43;99842.06;;;3.92;100.00
25722;BME280;13578;53.450;15.496;2023-02-19T13:49:47;99858.34;;;3.61;100.00
25722;BME280;13578;53.450;15.496;2023-02-19T13:52:49;99854.41;;;3.37;100.00
25722;BME280;13578;53.450;15.496;2023-02-19T13:55:50;99869.38;;;3.28;100.00
25722;BME280;13578;53.450;15.496;2023-02-19T13:58:55;99873.94;;;3.27;100.00
25722;BME280;13578;53.450;15.496;2023-02-19T14:05:05;99891.41;;;3.54;100.00
25722;BME280;13578;53.450;15.496;2023-02-19T14:08:08;99867.00;;;3.68;100.00
25722;BME280;13578;53.450;15.496;2023-02-19T14:11:09;99857.81;;;3.71;100.00
25722;BME280;13578;53.450;15.496;2023-02-19T14:14:35;99884.56;;;3.77;100.00
25722;BME280;13578;53.450;15.496;2023-02-19T14:17:43;99860.31;;;3.59;100.00
25722;BME280;13578;53.450;15.496;2023-02-19T14:20:47;99869.41;;;3.58;100.00
25722;BME280;13578;53.450;15.496;2023-02-19T14:23:55;99871.34;;;3.56;100.00
25722;BME280;13578;53.450;15.496;2023-02-19T14:26:58;99883.75;;;3.60;100.00
25722;BME280;13578;53.450;15.496;2023-02-19T14:29:59;99883.31;;;3.68;100.00
25722;BME280;13578;53.450;15.496;2023-02-19T14:33:02;99864.78;;;3.75;100.00
25722;BME280;13578;53.450;15.496;2023-02-19T14:39:38;99879.84;;;3.80;100.00
25722;BME280;13578;53.450;15.496;2023-02-19T14:42:40;99873.16;;;3.86;100.00
25722;BME280;13578;53.450;15.496;2023-02-19T14:45:43;99880.06;;;3.92;100.00
25722;BME280;13578;53.450;15.496;2023-02-19T14:48:48;99856.28;;;3.81;100.00
25722;BME280;13578;53.450;15.496;2023-02-19T14:51:55;99868.19;;;3.78;100.00
25722;BME280;13578;53.450;15.496;2023-02-19T14:55:02;99856.44;;;3.63;100.00
25722;BME280;13578;53.450;15.496;2023-02-19T14:58:19;99860.47;;;3.56;100.00
25722;BME280;13578;53.450;15.496;2023-02-19T15:01:25;99868.25;;;3.62;100.00
25722;BME280;13578;53.450;15.496;2023-02-19T15:04:34;99874.75;;;3.60;100.00
25722;BME280;13578;53.450;15.496;2023-02-19T15:07:35;99875.81;;;3.57;100.00
25722;BME280;13578;53.450;15.496;2023-02-19T15:10:35;99890.50;;;3.53;100.00
25722;BME280;13578;53.450;15.496;2023-02-19T15:13:38;99889.22;;;3.44;100.00
25722;BME280;13578;53.450;15.496;2023-02-19T15:16:45;99904.72;;;3.42;100.00
25722;BME280;13578;53.450;15.496;2023-02-19T15:19:46;99898.00;;;3.33;100.00
25722;BME280;13578;53.450;15.496;2023-02-19T15:22:47;99892.56;;;3.33;100.00
25722;BME280;13578;53.450;15.496;2023-02-19T15:25:49;99895.81;;;3.24;100.00
25722;BME280;13578;53.450;15.496;2023-02-19T15:29:02;99892.97;;;3.11;100.00
25722;BME280;13578;53.450;15.496;2023-02-19T15:32:18;99908.34;;;3.11;100.00
25722;BME280;13578;53.450;15.496;2023-02-19T15:35:21;99902.22;;;3.07;100.00
25722;BME280;13578;53.450;15.496;2023-02-19T15:38:24;99914.13;;;3.05;100.00
25722;BME280;13578;53.450;15.496;2023-02-19T15:41:27;99910.00;;;2.97;100.00
25722;BME280;13578;53.450;15.496;2023-02-19T15:44:40;99893.75;;;2.97;100.00
25722;BME280;13578;53.450;15.496;2023-02-19T15:47:56;99929.25;;;2.93;100.00
25722;BME280;13578;53.450;15.496;2023-02-19T15:51:03;99925.38;;;2.81;100.00
25722;BME280;13578;53.450;15.496;2023-02-19T15:54:24;99947.25;;;2.78;100.00
25722;BME280;13578;53.450;15.496;2023-02-19T15:57:31;99951.31;;;2.69;100.00
25722;BME280;13578;53.450;15.496;2023-02-19T16:00:52;99959.72;;;2.64;100.00
25722;BME280;13578;53.450;15.496;2023-02-19T16:03:54;99966.41;;;2.57;100.00
25722;BME280;13578;53.450;15.496;2023-02-19T16:07:00;99970.13;;;2.56;100.00
25722;BME280;13578;53.450;15.496;2023-02-19T16:10:21;99980.31;;;2.51;100.00
25722;BME280;13578;53.450;15.496;2023-02-19T16:13:27;99987.25;;;2.39;100.00
25722;BME280;13578;53.450;15.496;2023-02-19T16:16:39;99984.47;;;2.41;100.00
25722;BME280;13578;53.450;15.496;2023-02-19T16:19:55;99991.31;;;2.30;100.00
25722;BME280;13578;53.450;15.496;2023-02-19T16:22:58;99994.38;;;2.24;100.00
25722;BME280;13578;53.450;15.496;2023-02-19T16:26:01;100001.53;;;2.25;100.00
25722;BME280;13578;53.450;15.496;2023-02-19T16:29:02;100001.44;;;2.27;100.00
25722;BME280;13578;53.450;15.496;2023-02-19T16:32:05;99994.78;;;2.16;100.00
25722;BME280;13578;53.450;15.496;2023-02-19T16:35:36;100015.63;;;2.14;100.00
25722;BME280;13578;53.450;15.496;2023-02-19T16:38:37;100023.41;;;2.03;100.00
25722;BME280;13578;53.450;15.496;2023-02-19T16:44:47;100045.56;;;1.94;100.00
25722;BME280;13578;53.450;15.496;2023-02-19T16:47:48;100041.78;;;1.79;100.00
25722;BME280;13578;53.450;15.496;2023-02-19T16:50:50;100044.19;;;1.85;100.00
25722;BME280;13578;53.450;15.496;2023-02-19T16:53:51;100052.28;;;1.85;100.00
25722;BME280;13578;53.450;15.496;2023-02-19T16:56:51;100054.75;;;1.72;100.00
25722;BME280;13578;53.450;15.496;2023-02-19T16:59:52;100063.75;;;1.72;100.00
25722;BME280;13578;53.450;15.496;2023-02-19T17:03:02;100064.41;;;1.58;100.00
25722;BME280;13578;53.450;15.496;2023-02-19T17:06:08;100066.56;;;1.52;100.00
25722;BME280;13578;53.450;15.496;2023-02-19T17:09:08;100072.69;;;1.36;100.00
25722;BME280;13578;53.450;15.496;2023-02-19T17:12:11;100077.06;;;1.39;100.00
25722;BME280;13578;53.450;15.496;2023-02-19T17:15:11;100091.50;;;1.39;100.00
25722;BME280;13578;53.450;15.496;2023-02-19T17:18:12;100089.94;;;1.34;100.00
25722;BME280;13578;53.450;15.496;2023-02-19T17:21:24;100095.28;;;1.35;100.00
25722;BME280;13578;53.450;15.496;2023-02-19T17:24:25;100076.50;;;1.32;100.00
25722;BME280;13578;53.450;15.496;2023-02-19T17:27:26;100070.94;;;1.35;100.00
25722;BME280;13578;53.450;15.496;2023-02-19T17:30:29;100067.88;;;1.43;100.00
25722;BME280;13578;53.450;15.496;2023-02-19T17:33:30;100076.00;;;1.24;100.00
25722;BME280;13578;53.450;15.496;2023-02-19T17:36:31;100073.94;;;1.29;100.00
25722;BME280;13578;53.450;15.496;2023-02-19T17:39:31;100085.91;;;1.23;100.00
25722;BME280;13578;53.450;15.496;2023-02-19T17:42:32;100090.50;;;1.21;100.00
25722;BME280;13578;53.450;15.496;2023-02-19T17:45:33;100103.81;;;1.26;100.00
25722;BME280;13578;53.450;15.496;2023-02-19T17:48:33;100102.34;;;1.19;100.00
25722;BME280;13578;53.450;15.496;2023-02-19T17:51:34;100085.84;;;1.06;100.00
25722;BME280;13578;53.450;15.496;2023-02-19T17:54:37;100099.28;;;1.07;100.00